Time;durP1;ratioP1;P1;durP2;ratioP2;P2;SDS_P1;SDS_P2;PMS_P1;PMS_P2;Temp;Humidity;BMP_temperature;BMP_pressure;BME280_temperature;BME280_humidity;BME280_pressure;Samples;Min_cycle;Max_cycle;Signal;HPM_P1;HPM_P2
2021/01/28 00:00:16;;;;;;;15.20;6.50;;;;;;;;;;5021843;28;20405;-70
2021/01/28 00:02:42;;;;;;;10.32;4.65;;;;;;;;;;5022438;28;20045;-69
2021/01/28 00:05:09;;;;;;;12.20;5.88;;;;;;;;;;5026371;28;20461;-69
2021/01/28 00:07:36;;;;;;;13.65;6.50;;;;;;;;;;5022768;28;20056;-69
2021/01/28 00:10:03;;;;;;;11.88;6.38;;;;;;;;;;5023470;28;20034;-70
2021/01/28 00:12:29;;;;;;;12.63;5.70;;;;;;;;;;5018544;28;20034;-70
2021/01/28 00:14:55;;;;;;;16.27;6.90;;;;;;;;;;5027634;28;20124;-70
2021/01/28 00:17:21;;;;;;;10.90;5.68;;;;;;;;;;5018642;28;20030;-70
2021/01/28 00:19:48;;;;;;;13.43;6.15;;;;;;;;;;5023634;28;20128;-70
2021/01/28 00:22:14;;;;;;;11.33;5.70;;;;;;;;;;5023158;28;20042;-70
2021/01/28 00:24:40;;;;;;;12.70;5.80;;;;;;;;;;5025257;28;20076;-69
2021/01/28 00:27:06;;;;;;;11.83;5.93;;;;;;;;;;5028694;28;20136;-70
2021/01/28 00:29:32;;;;;;;14.45;6.35;;;;;;;;;;5041667;28;20052;-70
2021/01/28 00:31:58;;;;;;;12.70;6.20;;;;;;;;;;5029820;28;20142;-69
2021/01/28 00:34:25;;;;;;;14.93;6.35;;;;;;;;;;5032567;28;20041;-69
2021/01/28 00:36:51;;;;;;;13.85;5.80;;;;;;;;;;5042119;28;20057;-70
2021/01/28 00:39:17;;;;;;;16.80;5.60;;;;;;;;;;5042270;28;20091;-69
2021/01/28 00:41:44;;;;;;;12.00;6.20;;;;;;;;;;5049861;28;20295;-69
2021/01/28 00:44:10;;;;;;;14.55;6.53;;;;;;;;;;5046470;28;20041;-69
2021/01/28 00:46:36;;;;;;;12.47;6.03;;;;;;;;;;5043555;28;20529;-70
2021/01/28 00:49:03;;;;;;;9.80;5.53;;;;;;;;;;5046530;28;20052;-70
2021/01/28 00:51:30;;;;;;;11.30;5.55;;;;;;;;;;5042887;28;20412;-69
2021/01/28 00:53:56;;;;;;;11.18;5.93;;;;;;;;;;5044294;28;20112;-70
2021/01/28 00:56:23;;;;;;;9.90;4.77;;;;;;;;;;5023302;28;20145;-69
2021/01/28 00:58:51;;;;;;;15.17;6.50;;;;;;;;;;5022305;28;20073;-69
2021/01/28 01:01:22;;;;;;;14.65;5.90;;;;;;;;;;5028954;28;20458;-70
2021/01/28 01:03:49;;;;;;;9.85;5.00;;;;;;;;;;5043608;28;20041;-69
2021/01/28 01:06:16;;;;;;;12.70;6.35;;;;;;;;;;5044986;28;20080;-70
2021/01/28 01:08:42;;;;;;;13.60;6.03;;;;;;;;;;5042983;28;20039;-70
2021/01/28 01:11:22;;;;;;;15.48;5.60;;;;;;;;;;5030072;28;20132;-69
2021/01/28 01:13:53;;;;;;;11.15;5.95;;;;;;;;;;5045287;28;20046;-70
2021/01/28 01:16:26;;;;;;;15.70;6.10;;;;;;;;;;5028073;28;20103;-70
2021/01/28 01:19:06;;;;;;;13.57;6.27;;;;;;;;;;5024748;28;20483;-70
2021/01/28 01:21:59;;;;;;;13.80;6.90;;;;;;;;;;5033234;28;20143;-70
2021/01/28 01:24:25;;;;;;;11.32;5.13;;;;;;;;;;5042941;28;20115;-70
2021/01/28 01:26:52;;;;;;;18.63;6.47;;;;;;;;;;5046449;28;20045;-70
2021/01/28 01:29:20;;;;;;;13.27;6.93;;;;;;;;;;5024593;28;20165;-69
2021/01/28 01:32:05;;;;;;;15.83;7.50;;;;;;;;;;5047049;28;20420;-70
2021/01/28 01:34:42;;;;;;;15.00;6.47;;;;;;;;;;5026826;28;20124;-69
2021/01/28 01:37:09;;;;;;;;;;;;;;;;;;5032596;28;20525;-70
2021/01/28 01:39:40;;;;;;;16.67;6.53;;;;;;;;;;5028319;28;20344;-70
2021/01/28 01:42:09;;;;;;;17.63;6.60;;;;;;;;;;5042336;28;20037;-69
2021/01/28 01:44:36;;;;;;;13.82;6.80;;;;;;;;;;5019194;28;20503;-69
2021/01/28 01:47:33;;;;;;;12.40;6.65;;;;;;;;;;5029177;28;20150;-70
2021/01/28 01:50:00;;;;;;;13.75;6.85;;;;;;;;;;5038657;28;20570;-70
2021/01/28 01:52:30;;;;;;;15.07;6.97;;;;;;;;;;5027846;28;20045;-69
2021/01/28 01:54:57;;;;;;;17.10;7.47;;;;;;;;;;5039849;28;20059;-69
2021/01/28 01:57:29;;;;;;;15.48;6.63;;;;;;;;;;5041453;28;20060;-69
2021/01/28 02:00:15;;;;;;;14.70;6.93;;;;;;;;;;5023782;28;20064;-70
2021/01/28 02:02:53;;;;;;;17.10;6.53;;;;;;;;;;5026443;28;20063;-70
2021/01/28 02:05:40;;;;;;;14.23;7.07;;;;;;;;;;5047719;28;20055;-69
2021/01/28 02:08:42;;;;;;;15.30;7.00;;;;;;;;;;4978165;28;20118;-69
2021/01/28 02:11:28;;;;;;;13.50;7.22;;;;;;;;;;5045517;28;20125;-70
2021/01/28 02:14:12;;;;;;;15.38;6.75;;;;;;;;;;5044766;28;20049;-69
2021/01/28 02:16:58;;;;;;;14.45;7.07;;;;;;;;;;5030351;28;20053;-70
2021/01/28 02:20:06;;;;;;;13.80;7.60;;;;;;;;;;5036723;28;20129;-71
2021/01/28 02:22:45;;;;;;;14.98;7.20;;;;;;;;;;5037579;28;20095;-70
2021/01/28 02:25:25;;;;;;;23.58;8.77;;;;;;;;;;5034065;28;20136;-69
2021/01/28 02:27:56;;;;;;;11.77;7.05;;;;;;;;;;5022453;28;20056;-70
2021/01/28 02:30:42;;;;;;;15.00;7.05;;;;;;;;;;5019826;28;20045;-70
2021/01/28 02:33:11;;;;;;;17.40;7.73;;;;;;;;;;5008936;28;20485;-70
2021/01/28 02:35:50;;;;;;;19.20;7.03;;;;;;;;;;5005688;28;20523;-70
2021/01/28 02:38:19;;;;;;;13.93;7.47;;;;;;;;;;5010193;28;20096;-69
2021/01/28 02:40:50;;;;;;;15.43;6.95;;;;;;;;;;5013168;28;20049;-70
2021/01/28 02:43:28;;;;;;;18.27;7.40;;;;;;;;;;5011461;28;20042;-69
2021/01/28 02:46:13;;;;;;;13.00;7.10;;;;;;;;;;5032661;28;20048;-69
2021/01/28 02:48:50;;;;;;;9.25;5.03;;;;;;;;;;5012687;28;20497;-69
2021/01/28 02:51:49;;;;;;;14.00;6.63;;;;;;;;;;5019042;28;20463;-69
2021/01/28 02:54:24;;;;;;;12.93;6.60;;;;;;;;;;5010817;28;20042;-69
2021/01/28 02:56:50;;;;;;;12.75;6.63;;;;;;;;;;5020831;28;20042;-69
2021/01/28 02:59:17;;;;;;;12.55;6.43;;;;;;;;;;5012378;28;20463;-69
2021/01/28 03:01:45;;;;;;;17.10;6.82;;;;;;;;;;5012365;28;20061;-69
2021/01/28 03:04:14;;;;;;;15.90;6.20;;;;;;;;;;5008070;28;20041;-69
2021/01/28 03:06:54;;;;;;;12.77;6.75;;;;;;;;;;5012866;28;20099;-69
2021/01/28 03:09:21;;;;;;;17.92;6.18;;;;;;;;;;5011938;28;20738;-69
2021/01/28 03:12:06;;;;;;;13.83;6.23;;;;;;;;;;5028042;28;20061;-69
2021/01/28 03:15:06;;;;;;;11.13;6.13;;;;;;;;;;5017086;28;20055;-70
2021/01/28 03:17:32;;;;;;;;;;;;;;;;;;5019979;28;20042;-69
2021/01/28 03:20:07;;;;;;;14.13;6.37;;;;;;;;;;5012306;28;20430;-69
2021/01/28 03:22:36;;;;;;;14.25;6.57;;;;;;;;;;5028342;28;20041;-69
2021/01/28 03:25:21;;;;;;;17.92;6.63;;;;;;;;;;5027973;28;20068;-69
2021/01/28 03:27:50;;;;;;;13.25;6.80;;;;;;;;;;5022748;28;20425;-69
2021/01/28 03:30:22;;;;;;;11.77;6.60;;;;;;;;;;5026187;28;20045;-69
2021/01/28 03:32:50;;;;;;;15.70;6.77;;;;;;;;;;5030976;28;20048;-70
2021/01/28 03:35:18;;;;;;;13.35;6.35;;;;;;;;;;5024639;28;20040;-70
2021/01/28 03:37:45;;;;;;;17.67;6.60;;;;;;;;;;5026518;28;20061;-69
2021/01/28 03:40:11;;;;;;;8.15;5.18;;;;;;;;;;5027166;28;20052;-69
2021/01/28 03:42:39;;;;;;;12.10;6.73;;;;;;;;;;5032453;28;20526;-69
2021/01/28 03:45:06;;;;;;;10.93;6.35;;;;;;;;;;5033263;28;20057;-69
2021/01/28 03:47:32;;;;;;;10.73;6.75;;;;;;;;;;5043731;28;20566;-69
2021/01/28 03:50:08;;;;;;;13.05;6.47;;;;;;;;;;5031764;28;20060;-69
2021/01/28 03:52:39;;;;;;;11.23;6.00;;;;;;;;;;5025299;28;20471;-69
2021/01/28 03:55:27;;;;;;;11.40;6.40;;;;;;;;;;5042635;28;20128;-69
2021/01/28 03:57:54;;;;;;;10.60;5.73;;;;;;;;;;5047016;28;20033;-69
2021/01/28 04:00:22;;;;;;;11.75;4.40;;;;;;;;;;5031811;28;20044;-69
2021/01/28 04:03:04;;;;;;;9.45;5.65;;;;;;;;;;5029344;28;20046;-69
2021/01/28 04:05:54;;;;;;;10.57;5.77;;;;;;;;;;5043034;28;20452;-69
2021/01/28 04:08:54;;;;;;;10.35;5.15;;;;;;;;;;5024879;28;20055;-69
2021/01/28 04:11:39;;;;;;;11.73;5.23;;;;;;;;;;5028280;28;20052;-70
2021/01/28 04:14:20;;;;;;;9.85;4.88;;;;;;;;;;5029480;28;20057;-69
2021/01/28 04:16:48;;;;;;;9.23;5.13;;;;;;;;;;5010691;28;20517;-69
2021/01/28 04:19:14;;;;;;;12.40;5.20;;;;;;;;;;5031665;28;20497;-69
2021/01/28 04:21:44;;;;;;;11.70;5.28;;;;;;;;;;5042584;28;20041;-69
2021/01/28 04:24:10;;;;;;;9.20;5.03;;;;;;;;;;5050881;28;20048;-69
2021/01/28 04:26:43;;;;;;;8.67;4.80;;;;;;;;;;5027043;28;20045;-69
2021/01/28 04:29:10;;;;;;;10.02;4.55;;;;;;;;;;5030893;28;20052;-69
2021/01/28 04:31:43;;;;;;;12.70;5.23;;;;;;;;;;5044588;28;20061;-70
2021/01/28 04:34:36;;;;;;;9.47;4.93;;;;;;;;;;5014176;28;20051;-69
2021/01/28 04:37:13;;;;;;;7.07;4.20;;;;;;;;;;5025549;28;20038;-69
2021/01/28 04:39:53;;;;;;;11.73;4.70;;;;;;;;;;5025219;28;20042;-69
2021/01/28 04:42:38;;;;;;;7.90;4.10;;;;;;;;;;5027314;28;20137;-69
2021/01/28 04:45:05;;;;;;;7.50;4.60;;;;;;;;;;5040412;28;20037;-69
2021/01/28 04:47:32;;;;;;;11.82;3.75;;;;;;;;;;5021386;28;22462;-69
2021/01/28 04:50:02;;;;;;;12.53;4.37;;;;;;;;;;5027008;28;20047;-69
2021/01/28 04:52:36;;;;;;;8.05;4.43;;;;;;;;;;5040191;28;20045;-69
2021/01/28 04:55:38;;;;;;;7.90;3.63;;;;;;;;;;5036118;28;20127;-69
2021/01/28 04:58:06;;;;;;;12.13;4.15;;;;;;;;;;5047165;28;20049;-69
2021/01/28 05:00:49;;;;;;;7.37;3.80;;;;;;;;;;5028023;28;20053;-70
2021/01/28 05:03:29;;;;;;;8.63;4.03;;;;;;;;;;5025616;28;20075;-69
2021/01/28 05:06:13;;;;;;;9.70;3.42;;;;;;;;;;5028602;28;20187;-69
2021/01/28 05:08:59;;;;;;;10.98;4.07;;;;;;;;;;5046279;28;20108;-69
2021/01/28 05:11:54;;;;;;;6.77;3.67;;;;;;;;;;5031146;28;20056;-69
2021/01/28 05:15:16;;;;;;;8.33;4.17;;;;;;;;;;5029986;28;20132;-69
2021/01/28 05:18:03;;;;;;;7.75;3.67;;;;;;;;;;5046711;28;20056;-69
2021/01/28 05:20:50;;;;;;;8.60;4.00;;;;;;;;;;5044089;28;20049;-69
2021/01/28 05:23:28;;;;;;;8.60;4.10;;;;;;;;;;5029959;28;20522;-69
2021/01/28 05:25:54;;;;;;;6.35;3.65;;;;;;;;;;5045816;28;20159;-69
2021/01/28 05:28:38;;;;;;;8.53;4.27;;;;;;;;;;5042896;28;20089;-69
2021/01/28 05:31:27;;;;;;;7.47;3.77;;;;;;;;;;5031138;28;20115;-69
2021/01/28 05:34:14;;;;;;;9.27;4.27;;;;;;;;;;5047420;28;20044;-69
2021/01/28 05:37:04;;;;;;;10.17;4.20;;;;;;;;;;5047913;28;20424;-69
2021/01/28 05:39:49;;;;;;;8.30;3.88;;;;;;;;;;5040786;28;20048;-69
2021/01/28 05:42:20;;;;;;;11.13;3.80;;;;;;;;;;5026300;28;20059;-69
2021/01/28 05:44:46;;;;;;;10.25;3.63;;;;;;;;;;5029377;28;20119;-69
2021/01/28 05:47:19;;;;;;;7.18;3.75;;;;;;;;;;5033661;28;20119;-69
2021/01/28 05:50:16;;;;;;;8.00;3.80;;;;;;;;;;5027427;28;20099;-69
2021/01/28 05:52:43;;;;;;;6.63;3.30;;;;;;;;;;5030307;28;20132;-69
2021/01/28 05:55:21;;;;;;;6.88;4.03;;;;;;;;;;5030929;28;20405;-69
2021/01/28 05:58:10;;;;;;;7.57;3.33;;;;;;;;;;5031481;28;20563;-69
2021/01/28 06:00:46;;;;;;;6.77;3.60;;;;;;;;;;5032530;28;20045;-69
2021/01/28 06:03:25;;;;;;;5.22;2.95;;;;;;;;;;5044263;28;20116;-69
2021/01/28 06:06:16;;;;;;;6.17;3.50;;;;;;;;;;5046844;28;20172;-69
2021/01/28 06:08:58;;;;;;;9.00;3.90;;;;;;;;;;5033087;28;20079;-69
2021/01/28 06:11:41;;;;;;;8.63;3.60;;;;;;;;;;5027421;28;20084;-69
2021/01/28 06:14:25;;;;;;;10.23;3.50;;;;;;;;;;5047325;28;20128;-70
2021/01/28 06:17:28;;;;;;;10.50;3.40;;;;;;;;;;5034518;28;20044;-69
2021/01/28 06:20:32;;;;;;;10.33;3.77;;;;;;;;;;5047393;28;20051;-69
2021/01/28 06:23:09;;;;;;;6.30;3.30;;;;;;;;;;5032118;28;20056;-69
2021/01/28 06:26:22;;;;;;;10.17;3.10;;;;;;;;;;5032830;28;20409;-69
2021/01/28 06:29:14;;;;;;;6.18;3.40;;;;;;;;;;4992050;28;20468;-69
2021/01/28 06:31:53;;;;;;;6.50;3.60;;;;;;;;;;5027081;28;20071;-69
2021/01/28 06:35:03;;;;;;;7.68;3.30;;;;;;;;;;5022328;28;20092;-70
2021/01/28 06:38:07;;;;;;;6.90;3.57;;;;;;;;;;5026639;28;20159;-69
2021/01/28 06:41:02;;;;;;;5.80;3.03;;;;;;;;;;5027662;28;20060;-69
2021/01/28 06:43:50;;;;;;;8.07;3.30;;;;;;;;;;5022779;28;20061;-69
2021/01/28 06:46:57;;;;;;;10.18;3.70;;;;;;;;;;4949037;28;20055;-69
2021/01/28 06:49:45;;;;;;;8.05;3.33;;;;;;;;;;5021392;28;20518;-69
2021/01/28 06:52:12;;;;;;;8.65;3.13;;;;;;;;;;5023113;28;20049;-69
2021/01/28 06:54:41;;;;;;;7.18;3.72;;;;;;;;;;5024756;28;20112;-69
2021/01/28 06:57:48;;;;;;;12.43;3.85;;;;;;;;;;5021743;28;20083;-69
2021/01/28 07:00:49;;;;;;;6.97;2.67;;;;;;;;;;5008971;28;20073;-69
2021/01/28 07:03:35;;;;;;;6.95;3.20;;;;;;;;;;5020768;28;20121;-69
2021/01/28 07:06:21;;;;;;;8.53;3.47;;;;;;;;;;5027684;28;20475;-69
2021/01/28 07:09:08;;;;;;;6.13;2.63;;;;;;;;;;5006517;28;20524;-69
2021/01/28 07:11:44;;;;;;;7.10;3.28;;;;;;;;;;5027836;28;20292;-70
2021/01/28 07:14:37;;;;;;;7.75;2.83;;;;;;;;;;5003035;28;20049;-70
2021/01/28 07:17:10;;;;;;;8.38;3.13;;;;;;;;;;5009638;28;20455;-69
2021/01/28 07:19:38;;;;;;;8.90;2.63;;;;;;;;;;5009939;28;20049;-69
2021/01/28 07:22:24;;;;;;;9.32;3.30;;;;;;;;;;4992258;28;20045;-70
2021/01/28 07:24:50;;;;;;;6.50;3.23;;;;;;;;;;5010719;28;20049;-70
2021/01/28 07:27:18;;;;;;;12.52;3.38;;;;;;;;;;5026264;28;20045;-70
2021/01/28 07:29:44;;;;;;;8.65;3.15;;;;;;;;;;5032555;28;20046;-69
2021/01/28 07:32:12;;;;;;;7.70;3.10;;;;;;;;;;5030087;28;20456;-69
2021/01/28 07:35:12;;;;;;;9.43;3.60;;;;;;;;;;5000518;28;20041;-69
2021/01/28 07:37:39;;;;;;;7.47;2.67;;;;;;;;;;5009513;28;20050;-69
2021/01/28 07:40:48;;;;;;;8.40;2.88;;;;;;;;;;5029118;28;20064;-69
2021/01/28 07:43:33;;;;;;;8.90;3.00;;;;;;;;;;5009301;28;20048;-69
2021/01/28 07:46:28;;;;;;;7.60;2.83;;;;;;;;;;5009852;28;20046;-69
2021/01/28 07:49:25;;;;;;;9.13;2.97;;;;;;;;;;5011569;28;20088;-69
2021/01/28 07:52:16;;;;;;;5.00;2.67;;;;;;;;;;5025448;28;20164;-69
2021/01/28 07:54:46;;;;;;;7.70;2.90;;;;;;;;;;5026696;28;20049;-69
2021/01/28 07:57:33;;;;;;;6.78;3.05;;;;;;;;;;5022522;28;20141;-70
2021/01/28 08:00:01;;;;;;;7.88;2.25;;;;;;;;;;5028750;28;20049;-69
2021/01/28 08:02:40;;;;;;;8.35;2.85;;;;;;;;;;5027773;28;20438;-70
2021/01/28 08:05:25;;;;;;;7.35;2.92;;;;;;;;;;5031252;28;20045;-69
2021/01/28 08:08:06;;;;;;;7.40;3.03;;;;;;;;;;5030378;28;20056;-69
2021/01/28 08:10:34;;;;;;;7.82;2.80;;;;;;;;;;5026691;28;20046;-69
2021/01/28 08:13:08;;;;;;;5.50;2.88;;;;;;;;;;5032516;28;20461;-70
2021/01/28 08:15:41;;;;;;;10.27;2.70;;;;;;;;;;5029456;28;20050;-70
2021/01/28 08:18:26;;;;;;;7.80;3.30;;;;;;;;;;5025927;28;20038;-69
2021/01/28 08:21:03;;;;;;;12.73;2.63;;;;;;;;;;5025238;28;20042;-70
2021/01/28 08:23:29;;;;;;;4.63;2.15;;;;;;;;;;5028063;28;20056;-69
2021/01/28 08:25:57;;;;;;;8.38;2.33;;;;;;;;;;5025689;28;20493;-69
2021/01/28 08:28:28;;;;;;;13.57;3.53;;;;;;;;;;5034668;28;20079;-69
2021/01/28 08:31:01;;;;;;;7.88;2.92;;;;;;;;;;5049860;28;20068;-69
2021/01/28 08:33:28;;;;;;;7.97;3.00;;;;;;;;;;5045212;28;20045;-69
2021/01/28 08:35:58;;;;;;;8.95;2.80;;;;;;;;;;5048705;28;20090;-69
2021/01/28 08:38:27;;;;;;;15.05;3.50;;;;;;;;;;5052384;28;20500;-70
2021/01/28 08:41:05;;;;;;;11.50;3.03;;;;;;;;;;5048316;28;20259;-69
2021/01/28 08:43:32;;;;;;;8.30;3.20;;;;;;;;;;5045801;28;20049;-70
2021/01/28 08:46:05;;;;;;;13.95;3.45;;;;;;;;;;5046899;28;20050;-69
2021/01/28 08:48:32;;;;;;;10.75;3.58;;;;;;;;;;5043187;28;20045;-69
2021/01/28 08:51:03;;;;;;;12.27;3.83;;;;;;;;;;5043791;28;20037;-70
2021/01/28 08:53:29;;;;;;;7.43;3.17;;;;;;;;;;5047436;28;20479;-70
2021/01/28 08:56:22;;;;;;;10.02;2.90;;;;;;;;;;5043756;28;20044;-70
2021/01/28 08:58:48;;;;;;;8.38;2.97;;;;;;;;;;5042743;28;20045;-69
2021/01/28 09:01:15;;;;;;;8.38;2.97;;;;;;;;;;5045546;28;20041;-69
2021/01/28 09:03:41;;;;;;;7.30;2.05;;;;;;;;;;5040190;28;20068;-69
2021/01/28 09:06:08;;;;;;;11.00;2.90;;;;;;;;;;5045741;28;20052;-69
2021/01/28 09:08:35;;;;;;;9.13;2.80;;;;;;;;;;5051716;28;20036;-69
2021/01/28 09:11:21;;;;;;;10.20;2.85;;;;;;;;;;5052552;28;20484;-69
2021/01/28 09:14:06;;;;;;;5.97;3.05;;;;;;;;;;5048896;28;20045;-69
2021/01/28 09:16:33;;;;;;;6.63;2.45;;;;;;;;;;5054663;28;20107;-69
2021/01/28 09:19:07;;;;;;;4.40;2.22;;;;;;;;;;5051095;28;20047;-69
2021/01/28 09:21:37;;;;;;;4.10;2.28;;;;;;;;;;5048132;28;20507;-69
2021/01/28 09:24:12;;;;;;;6.35;2.20;;;;;;;;;;5047482;28;20033;-69
2021/01/28 09:26:39;;;;;;;6.05;2.25;;;;;;;;;;5047018;28;20056;-69
2021/01/28 09:29:20;;;;;;;8.45;3.20;;;;;;;;;;5048915;28;20080;-69
2021/01/28 09:31:47;;;;;;;8.10;2.42;;;;;;;;;;5049228;28;20052;-69
2021/01/28 09:34:24;;;;;;;11.30;2.65;;;;;;;;;;5052752;28;20045;-69
2021/01/28 09:36:55;;;;;;;14.90;3.45;;;;;;;;;;5050403;28;20643;-69
2021/01/28 09:39:28;;;;;;;5.88;2.65;;;;;;;;;;5054481;28;20045;-70
2021/01/28 09:41:54;;;;;;;7.47;2.50;;;;;;;;;;5049377;28;20052;-70
2021/01/28 09:44:39;;;;;;;6.70;2.80;;;;;;;;;;5048079;28;20047;-70
2021/01/28 09:47:05;;;;;;;11.45;2.80;;;;;;;;;;5049598;28;20052;-69
2021/01/28 09:49:32;;;;;;;8.10;2.47;;;;;;;;;;5047032;28;20147;-69
2021/01/28 09:52:22;;;;;;;4.95;2.60;;;;;;;;;;5046603;28;20037;-70
2021/01/28 09:54:49;;;;;;;8.57;2.70;;;;;;;;;;5048796;28;20488;-69
2021/01/28 09:57:16;;;;;;;9.18;2.35;;;;;;;;;;5046656;28;20030;-69
2021/01/28 09:59:42;;;;;;;7.67;2.63;;;;;;;;;;5058693;28;20056;-69
2021/01/28 10:02:11;;;;;;;13.20;3.17;;;;;;;;;;5049154;28;20296;-70
2021/01/28 10:04:38;;;;;;;9.43;2.85;;;;;;;;;;5049524;28;20144;-69
2021/01/28 10:07:04;;;;;;;8.75;2.88;;;;;;;;;;5047647;28;20053;-69
2021/01/28 10:09:31;;;;;;;7.50;2.90;;;;;;;;;;5047614;28;20105;-69
2021/01/28 10:11:57;;;;;;;12.75;3.13;;;;;;;;;;5045949;28;20452;-69
2021/01/28 10:14:24;;;;;;;7.38;2.78;;;;;;;;;;5049798;28;20037;-69
2021/01/28 10:16:50;;;;;;;5.07;2.60;;;;;;;;;;5048501;28;20099;-69
2021/01/28 10:19:16;;;;;;;6.35;2.80;;;;;;;;;;5047202;28;20547;-69
2021/01/28 10:21:42;;;;;;;8.77;2.70;;;;;;;;;;5044336;28;20171;-69
2021/01/28 10:24:10;;;;;;;5.80;2.67;;;;;;;;;;5047788;28;20037;-69
2021/01/28 10:26:36;;;;;;;5.93;2.50;;;;;;;;;;5043205;28;20497;-70
2021/01/28 10:29:02;;;;;;;11.48;2.92;;;;;;;;;;5025844;28;20577;-70
2021/01/28 10:31:29;;;;;;;6.57;2.67;;;;;;;;;;5052644;28;20045;-69
2021/01/28 10:33:55;;;;;;;5.75;2.60;;;;;;;;;;5053885;28;20088;-69
2021/01/28 10:36:22;;;;;;;6.78;2.58;;;;;;;;;;5053043;28;20363;-69
2021/01/28 10:38:48;;;;;;;9.13;2.83;;;;;;;;;;5050513;28;20046;-69
2021/01/28 10:41:14;;;;;;;9.13;2.72;;;;;;;;;;5044679;28;20456;-70
2021/01/28 10:43:40;;;;;;;7.63;2.83;;;;;;;;;;5050685;28;20037;-69
2021/01/28 10:46:07;;;;;;;3.53;1.97;;;;;;;;;;5049430;28;20037;-70
2021/01/28 10:48:33;;;;;;;10.60;2.85;;;;;;;;;;5042908;28;20296;-70
2021/01/28 10:50:59;;;;;;;5.15;2.25;;;;;;;;;;5049373;28;20049;-69
2021/01/28 10:53:26;;;;;;;10.13;2.57;;;;;;;;;;5040833;28;20041;-69
2021/01/28 10:55:52;;;;;;;11.25;2.72;;;;;;;;;;5032809;28;20513;-70
2021/01/28 10:58:26;;;;;;;6.60;2.60;;;;;;;;;;5050245;28;20088;-69
2021/01/28 11:00:54;;;;;;;5.57;2.45;;;;;;;;;;5051212;28;20107;-70
2021/01/28 11:03:20;;;;;;;6.78;2.47;;;;;;;;;;5048287;28;20500;-69
2021/01/28 11:05:50;;;;;;;7.50;2.88;;;;;;;;;;5050502;28;20045;-70
2021/01/28 11:08:16;;;;;;;8.23;2.90;;;;;;;;;;5043533;28;20414;-69
2021/01/28 11:10:44;;;;;;;5.38;2.30;;;;;;;;;;5043191;28;20440;-70
2021/01/28 11:13:12;;;;;;;7.53;2.60;;;;;;;;;;5047725;28;20049;-69
2021/01/28 11:15:38;;;;;;;12.82;3.03;;;;;;;;;;5044128;28;20403;-70
2021/01/28 11:18:06;;;;;;;11.10;2.72;;;;;;;;;;5046008;28;20516;-69
2021/01/28 11:20:33;;;;;;;7.07;2.72;;;;;;;;;;5051825;28;20123;-70
2021/01/28 11:22:59;;;;;;;5.15;2.75;;;;;;;;;;5050772;28;20045;-70
2021/01/28 11:25:26;;;;;;;6.65;2.42;;;;;;;;;;5032975;28;20083;-70
2021/01/28 11:27:53;;;;;;;3.60;2.45;;;;;;;;;;5044731;28;20119;-69
2021/01/28 11:30:21;;;;;;;7.68;2.50;;;;;;;;;;5045612;28;20037;-70
2021/01/28 11:32:48;;;;;;;4.88;2.30;;;;;;;;;;5047733;28;20061;-69
2021/01/28 11:35:16;;;;;;;5.88;2.28;;;;;;;;;;5052151;28;20047;-69
2021/01/28 11:37:45;;;;;;;7.10;2.60;;;;;;;;;;5043821;28;20471;-69
2021/01/28 11:40:14;;;;;;;4.47;2.40;;;;;;;;;;5049355;28;20044;-69
2021/01/28 11:42:40;;;;;;;5.47;2.20;;;;;;;;;;5044019;28;20116;-70
2021/01/28 11:45:07;;;;;;;5.38;2.38;;;;;;;;;;5047712;28;20041;-70
2021/01/28 11:47:34;;;;;;;5.03;2.38;;;;;;;;;;5047873;28;20535;-69
2021/01/28 11:50:00;;;;;;;3.58;2.30;;;;;;;;;;5047087;28;20132;-70
2021/01/28 11:52:27;;;;;;;4.43;2.28;;;;;;;;;;5049795;28;20401;-70
2021/01/28 11:54:53;;;;;;;5.47;2.20;;;;;;;;;;5044538;28;20774;-69
2021/01/28 11:57:19;;;;;;;5.40;2.08;;;;;;;;;;5045373;28;20516;-69
2021/01/28 11:59:45;;;;;;;5.22;2.55;;;;;;;;;;5048157;28;20037;-70
2021/01/28 12:02:11;;;;;;;6.05;2.40;;;;;;;;;;5050024;28;20103;-70
2021/01/28 12:04:38;;;;;;;8.73;2.83;;;;;;;;;;5052710;28;20065;-69
2021/01/28 12:07:04;;;;;;;5.03;2.50;;;;;;;;;;5047688;28;20057;-69
2021/01/28 12:09:30;;;;;;;7.45;2.75;;;;;;;;;;5041464;28;20052;-70
2021/01/28 12:11:57;;;;;;;5.63;2.50;;;;;;;;;;5046637;28;20452;-70
2021/01/28 12:14:23;;;;;;;7.93;3.05;;;;;;;;;;5045031;28;20100;-70
2021/01/28 12:16:49;;;;;;;8.63;2.50;;;;;;;;;;5045074;28;20056;-69
2021/01/28 12:19:16;;;;;;;7.45;2.53;;;;;;;;;;5044865;28;20436;-70
2021/01/28 12:21:43;;;;;;;5.35;2.90;;;;;;;;;;5046080;28;20072;-70
2021/01/28 12:24:09;;;;;;;7.00;2.95;;;;;;;;;;5047379;28;20103;-70
2021/01/28 12:26:37;;;;;;;7.55;2.80;;;;;;;;;;5048476;28;20556;-69
2021/01/28 12:29:03;;;;;;;6.53;2.65;;;;;;;;;;5047701;28;20056;-70
2021/01/28 12:31:29;;;;;;;9.95;2.78;;;;;;;;;;5051432;28;20041;-69
2021/01/28 12:33:56;;;;;;;4.95;2.40;;;;;;;;;;5039507;28;20045;-69
2021/01/28 12:36:22;;;;;;;4.63;2.40;;;;;;;;;;5047293;28;20325;-70
2021/01/28 12:38:49;;;;;;;4.93;2.83;;;;;;;;;;5046556;28;20059;-70
2021/01/28 12:41:15;;;;;;;4.40;2.50;;;;;;;;;;5042072;28;20045;-69
2021/01/28 12:43:41;;;;;;;9.13;2.95;;;;;;;;;;5048014;28;20620;-70
2021/01/28 12:46:08;;;;;;;7.55;2.70;;;;;;;;;;5049362;28;20025;-70
2021/01/28 12:48:34;;;;;;;5.43;2.63;;;;;;;;;;5047041;28;20505;-70
2021/01/28 12:51:00;;;;;;;9.57;2.50;;;;;;;;;;5047055;28;20291;-70
2021/01/28 12:53:26;;;;;;;6.60;2.97;;;;;;;;;;5044258;28;20059;-69
2021/01/28 12:55:53;;;;;;;11.48;3.35;;;;;;;;;;5040615;28;20049;-70
2021/01/28 12:58:19;;;;;;;9.18;2.78;;;;;;;;;;5051363;28;20033;-70
2021/01/28 13:00:45;;;;;;;9.73;3.40;;;;;;;;;;5040368;28;20049;-70
2021/01/28 13:03:12;;;;;;;5.43;2.60;;;;;;;;;;5045940;28;20418;-69
2021/01/28 13:05:39;;;;;;;11.00;3.08;;;;;;;;;;5049404;28;20096;-69
2021/01/28 13:08:06;;;;;;;7.55;3.55;;;;;;;;;;5050543;28;20107;-70
2021/01/28 13:10:32;;;;;;;9.85;2.78;;;;;;;;;;5049736;28;20037;-70
2021/01/28 13:12:58;;;;;;;9.82;3.10;;;;;;;;;;5047212;28;20053;-70
2021/01/28 13:15:24;;;;;;;10.02;3.05;;;;;;;;;;5046883;28;20049;-70
2021/01/28 13:17:52;;;;;;;6.82;2.83;;;;;;;;;;5046138;28;20060;-70
2021/01/28 13:20:20;;;;;;;6.65;2.42;;;;;;;;;;5027489;28;20079;-70
2021/01/28 13:22:47;;;;;;;5.82;2.33;;;;;;;;;;5048932;28;20037;-69
2021/01/28 13:25:16;;;;;;;7.15;2.60;;;;;;;;;;5045806;28;20582;-69
2021/01/28 13:27:43;;;;;;;7.30;2.67;;;;;;;;;;5043163;28;20045;-69
2021/01/28 13:30:10;;;;;;;8.05;2.72;;;;;;;;;;5045381;28;20037;-69
2021/01/28 13:32:38;;;;;;;11.60;2.72;;;;;;;;;;5040194;28;20097;-69
2021/01/28 13:35:06;;;;;;;4.88;2.40;;;;;;;;;;5044838;28;20037;-69
2021/01/28 13:37:32;;;;;;;3.63;2.28;;;;;;;;;;5043106;28;20052;-69
2021/01/28 13:39:59;;;;;;;8.55;2.50;;;;;;;;;;5040048;28;20128;-70
2021/01/28 13:42:26;;;;;;;7.03;2.50;;;;;;;;;;5047136;28;20041;-70
2021/01/28 13:44:53;;;;;;;3.15;1.85;;;;;;;;;;5043985;28;20414;-69
2021/01/28 13:47:19;;;;;;;6.57;2.88;;;;;;;;;;5044572;28;20051;-70
2021/01/28 13:49:46;;;;;;;8.70;2.00;;;;;;;;;;5045004;28;20041;-70
2021/01/28 13:52:12;;;;;;;5.43;2.47;;;;;;;;;;5041024;28;20049;-70
2021/01/28 13:54:42;;;;;;;4.45;2.30;;;;;;;;;;5044512;28;20401;-69
2021/01/28 13:57:09;;;;;;;6.33;1.90;;;;;;;;;;5045666;28;20435;-70
2021/01/28 13:59:37;;;;;;;7.45;2.55;;;;;;;;;;5052733;28;20299;-70
2021/01/28 14:02:05;;;;;;;7.05;2.30;;;;;;;;;;5050769;28;20041;-70
2021/01/28 14:04:32;;;;;;;5.70;2.20;;;;;;;;;;5045668;28;20037;-69
2021/01/28 14:06:59;;;;;;;7.27;2.57;;;;;;;;;;5053295;28;20041;-70
2021/01/28 14:09:26;;;;;;;6.80;2.40;;;;;;;;;;5041910;28;20049;-70
2021/01/28 14:11:52;;;;;;;6.85;2.10;;;;;;;;;;5049362;28;20092;-69
2021/01/28 14:14:18;;;;;;;9.23;2.72;;;;;;;;;;5044888;28;20051;-69
2021/01/28 14:16:44;;;;;;;6.10;2.17;;;;;;;;;;5045765;28;20175;-70
2021/01/28 14:19:11;;;;;;;5.97;2.30;;;;;;;;;;5030744;28;20106;-69
2021/01/28 14:21:37;;;;;;;6.15;2.13;;;;;;;;;;5047768;28;20041;-70
2021/01/28 14:24:03;;;;;;;7.45;2.47;;;;;;;;;;5053320;28;20095;-70
2021/01/28 14:26:29;;;;;;;5.47;2.00;;;;;;;;;;5053498;28;20049;-70
2021/01/28 14:28:55;;;;;;;6.35;2.28;;;;;;;;;;5047365;28;20535;-70
2021/01/28 14:31:22;;;;;;;6.90;2.58;;;;;;;;;;5050131;28;20052;-69
2021/01/28 14:33:50;;;;;;;7.13;2.38;;;;;;;;;;5052407;28;20091;-70
2021/01/28 14:36:16;;;;;;;5.57;2.30;;;;;;;;;;5047895;28;20041;-70
2021/01/28 14:38:43;;;;;;;3.85;2.20;;;;;;;;;;5047580;28;20044;-70
2021/01/28 14:41:09;;;;;;;11.95;2.78;;;;;;;;;;5045418;28;20037;-70
2021/01/28 14:43:36;;;;;;;7.28;3.00;;;;;;;;;;5052218;28;20053;-70
2021/01/28 14:46:02;;;;;;;8.98;2.90;;;;;;;;;;5049706;28;20044;-69
2021/01/28 14:48:28;;;;;;;7.47;2.40;;;;;;;;;;5049761;28;20492;-70
2021/01/28 14:50:54;;;;;;;3.87;1.80;;;;;;;;;;5046071;28;20037;-69
2021/01/28 14:53:21;;;;;;;5.55;2.40;;;;;;;;;;5049903;28;20102;-70
2021/01/28 14:55:49;;;;;;;5.68;2.67;;;;;;;;;;5051584;28;20067;-70
2021/01/28 14:58:15;;;;;;;5.95;2.42;;;;;;;;;;5046003;28;20363;-70
2021/01/28 15:00:41;;;;;;;5.45;2.88;;;;;;;;;;5049442;28;20036;-70
2021/01/28 15:03:07;;;;;;;7.10;2.60;;;;;;;;;;5050558;28;20045;-70
2021/01/28 15:05:34;;;;;;;7.15;2.88;;;;;;;;;;5042770;28;20049;-70
2021/01/28 15:08:00;;;;;;;5.25;2.95;;;;;;;;;;5046462;28;20041;-69
2021/01/28 15:10:28;;;;;;;10.95;2.88;;;;;;;;;;5048729;28;20124;-69
2021/01/28 15:12:54;;;;;;;4.90;2.03;;;;;;;;;;5046472;28;20127;-69